Time;durP1;ratioP1;P1;durP2;ratioP2;P2;SDS_P1;SDS_P2;PMS_P1;PMS_P2;Temp;Humidity;BMP_temperature;BMP_pressure;BME280_temperature;BME280_humidity;BME280_pressure;Samples;Min_cycle;Max_cycle;Signal;HPM_P1;HPM_P2
2023/07/06 00:00:13;;;;;;;;;;;;;;;;;;7389179;19;19930;-70
2023/07/06 00:02:39;;;;;;;;;;;;;;;;;;7367535;19;19927;-70
2023/07/06 00:05:04;;;;;;;;;;;;;;;;;;7368497;19;20322;-69
2023/07/06 00:07:29;;;;;;;;;;;;;;;;;;7366864;19;20291;-70
2023/07/06 00:09:55;;;;;;;;;;;;;;;;;;7367166;19;19940;-68
2023/07/06 00:12:23;;;;;;;;;;;;;;;;;;7390819;19;19915;-69
2023/07/06 00:14:48;;;;;;;;;;;;;;;;;;7368726;19;19915;-68
2023/07/06 00:17:15;;;;;;;;;;;;;;;;;;7368924;19;19929;-69
2023/07/06 00:19:40;;;;;;;;;;;;;;;;;;7369615;19;19919;-69
2023/07/06 00:22:07;;;;;;;;;;;;;;;;;;7367465;19;20492;-69
2023/07/06 00:24:32;;;;;;;;;;;;;;;;;;7388902;19;19914;-69
2023/07/06 00:26:57;;;;;;;;;;;;;;;;;;7364697;19;19919;-70
2023/07/06 00:29:22;;;;;;;;;;;;;;;;;;7366238;19;19919;-69
2023/07/06 00:31:51;;;;;;;;;;;;;;;;;;7367817;19;19915;-70
2023/07/06 00:34:18;;;;;;;;;;;;;;;;;;7363640;19;19918;-70
2023/07/06 00:36:43;;;;;;;;;;;;;;;;;;7367074;19;19922;-70
2023/07/06 00:39:12;;;;;;;;;;;;;;;;;;7386946;19;19918;-70
2023/07/06 00:41:38;;;;;;;;;;;;;;;;;;7365640;19;19919;-70
2023/07/06 00:44:04;;;;;;;;;;;;;;;;;;7366584;19;20580;-70
2023/07/06 00:46:36;;;;;;;;;;;;;;;;;;7364806;19;19926;-70
2023/07/06 00:49:03;;;;;;;;;;;;;;;;;;7365980;19;19923;-71
2023/07/06 00:51:39;;;;;;;;;;;;;;;;;;7387011;19;19914;-68
2023/07/06 00:54:08;;;;;;;;;;;;;;;;;;7375682;19;19927;-68
2023/07/06 00:56:40;;;;;;;;;;;;;;;;;;7369682;19;19910;-69
2023/07/06 00:59:06;;;;;;;;;;;;;;;;;;7365901;19;20437;-69
2023/07/06 01:01:36;;;;;;;;;;;;;;;;;;7365613;19;20008;-69
2023/07/06 01:04:02;;;;;;;;;;;;;;;;;;7365331;19;20270;-70
2023/07/06 01:06:29;;;;;;;;;;;;;;;;;;7385963;19;19915;-70
2023/07/06 01:08:55;;;;;;;;;;;;;;;;;;7364065;19;19923;-69
2023/07/06 01:11:21;;;;;;;;;;;;;;;;;;7363053;19;19982;-69
2023/07/06 01:13:50;;;;;;;;;;;;;;;;;;7364014;19;19941;-70
2023/07/06 01:16:19;;;;;;;;;;;;;;;;;;7364669;19;19929;-69
2023/07/06 01:18:47;;;;;;;;;;;;;;;;;;7361316;19;19939;-70
2023/07/06 01:21:28;;;;;;;;;;;;;;;;;;7387060;19;20021;-69
2023/07/06 01:23:59;;;;;;;;;;;;;;;;;;7363120;19;19915;-69
2023/07/06 01:26:27;;;;;;;;;;;;;;;;;;7364630;19;19930;-69
2023/07/06 01:28:58;;;;;;;;;;;;;;;;;;7364737;19;19914;-69
2023/07/06 01:31:42;;;;;;;;;;;;;;;;;;7366105;19;19947;-70
2023/07/06 01:34:26;;;;;;;;;;;;;;;;;;7369167;19;19927;-70
2023/07/06 01:37:10;;;;;;;;;;;;;;;;;;7372031;19;19978;-70
2023/07/06 01:39:35;;;;;;;;;;;;;;;;;;7395059;19;19918;-68
2023/07/06 01:42:12;;;;;;;;;;;;;;;;;;7373858;19;19922;-68
2023/07/06 01:44:37;;;;;;;;;;;;;;;;;;7372363;19;19986;-68
2023/07/06 01:47:03;;;;;;;;;;;;;;;;;;7371820;19;20349;-68
2023/07/06 01:49:29;;;;;;;;;;;;;;;;;;7372713;19;19935;-69
2023/07/06 01:52:09;;;;;;;;;;;;;;;;;;7373199;19;19922;-69
2023/07/06 01:54:41;;;;;;;;;;;;;;;;;;7392770;19;19918;-69
2023/07/06 01:57:13;;;;;;;;;;;;;;;;;;7369817;19;19986;-69
2023/07/06 01:59:39;;;;;;;;;;;;;;;;;;7372119;19;20559;-68
2023/07/06 02:02:07;;;;;;;;;;;;;;;;;;7372334;19;20353;-68
2023/07/06 02:04:33;;;;;;;;;;;;;;;;;;7371870;19;19964;-69
2023/07/06 02:07:00;;;;;;;;;;;;;;;;;;7371749;19;19930;-69
2023/07/06 02:09:26;;;;;;;;;;;;;;;;;;7394030;19;19937;-70
2023/07/06 02:11:52;;;;;;;;;;;;;;;;;;7375828;19;20001;-69
2023/07/06 02:14:18;;;;;;;;;;;;;;;;;;7376983;19;19922;-68
2023/07/06 02:16:43;;;;;;;;;;;;;;;;;;7376102;19;19915;-69
2023/07/06 02:19:08;;;;;;;;;;;;;;;;;;7375205;19;19926;-69
2023/07/06 02:21:34;;;;;;;;;;;;;;;;;;7395755;19;19998;-68
2023/07/06 02:23:59;;;;;;;;;;;;;;;;;;7374414;19;19971;-69
2023/07/06 02:26:25;;;;;;;;;;;;;;;;;;7373424;19;19919;-70
2023/07/06 02:28:52;;;;;;;;;;;;;;;;;;7371253;19;19919;-69
2023/07/06 02:31:18;;;;;;;;;;;;;;;;;;7370299;19;19918;-70
2023/07/06 02:33:44;;;;;;;;;;;;;;;;;;7368735;19;19926;-70
2023/07/06 02:36:09;;;;;;;;;;;;;;;;;;7390087;19;19907;-70
2023/07/06 02:38:36;;;;;;;;;;;;;;;;;;7369607;19;19919;-70
2023/07/06 02:41:04;;;;;;;;;;;;;;;;;;7369957;19;20743;-70
2023/07/06 02:43:30;;;;;;;;;;;;;;;;;;7367261;19;19930;-68
2023/07/06 02:45:55;;;;;;;;;;;;;;;;;;7367232;19;19935;-68
2023/07/06 02:48:20;;;;;;;;;;;;;;;;;;7388783;19;19914;-70
2023/07/06 02:50:49;;;;;;;;;;;;;;;;;;7370928;19;19950;-68
2023/07/06 02:53:15;;;;;;;;;;;;;;;;;;7372219;19;20006;-68
2023/07/06 02:55:40;;;;;;;;;;;;;;;;;;7369933;19;19947;-70
2023/07/06 02:58:05;;;;;;;;;;;;;;;;;;7367844;19;19935;-68
2023/07/06 03:00:31;;;;;;;;;;;;;;;;;;7389545;19;19935;-70
2023/07/06 03:02:56;;;;;;;;;;;;;;;;;;7368753;19;19922;-69
2023/07/06 03:05:22;;;;;;;;;;;;;;;;;;7367318;19;20352;-70
2023/07/06 03:07:49;;;;;;;;;;;;;;;;;;7369877;19;19982;-69
2023/07/06 03:10:17;;;;;;;;;;;;;;;;;;7369340;19;19919;-69
2023/07/06 03:12:42;;;;;;;;;;;;;;;;;;7371921;19;19926;-69
2023/07/06 03:15:10;;;;;;;;;;;;;;;;;;7387766;19;19934;-69
2023/07/06 03:17:36;;;;;;;;;;;;;;;;;;7367807;19;20444;-70
2023/07/06 03:20:11;;;;;;;;;;;;;;;;;;7370259;19;20026;-70
2023/07/06 03:22:37;;;;;;;;;;;;;;;;;;7385826;19;19954;-69
2023/07/06 03:25:02;;;;;;;;;;;;;;;;;;7377864;19;19933;-69
2023/07/06 03:27:28;;;;;;;;;;;;;;;;;;7398052;19;19939;-69
2023/07/06 03:29:53;;;;;;;;;;;;;;;;;;7371987;19;19975;-69
2023/07/06 03:32:19;;;;;;;;;;;;;;;;;;7373076;19;19927;-68
2023/07/06 03:34:45;;;;;;;;;;;;;;;;;;7369666;19;19915;-69
2023/07/06 03:37:10;;;;;;;;;;;;;;;;;;7369917;19;19919;-68
2023/07/06 03:39:36;;;;;;;;;;;;;;;;;;7394517;19;19932;-68
2023/07/06 03:42:02;;;;;;;;;;;;;;;;;;7370913;19;20370;-68
2023/07/06 03:44:27;;;;;;;;;;;;;;;;;;7369043;19;19927;-68
2023/07/06 03:46:52;;;;;;;;;;;;;;;;;;7371027;19;19935;-69
2023/07/06 03:49:18;;;;;;;;;;;;;;;;;;7368721;19;19934;-68
2023/07/06 03:51:46;;;;;;;;;;;;;;;;;;7371010;19;19911;-68
2023/07/06 03:54:11;;;;;;;;;;;;;;;;;;7392676;19;19914;-70
2023/07/06 03:56:37;;;;;;;;;;;;;;;;;;7370229;19;19915;-69
2023/07/06 03:59:05;;;;;;;;;;;;;;;;;;7370030;19;19922;-70
2023/07/06 04:01:33;;;;;;;;;;;;;;;;;;7366041;19;20330;-70
2023/07/06 04:03:59;;;;;;;;;;;;;;;;;;7368101;19;19926;-68
2023/07/06 04:06:25;;;;;;;;;;;;;;;;;;7391062;19;19914;-69
2023/07/06 04:08:52;;;;;;;;;;;;;;;;;;7366980;19;19935;-69
2023/07/06 04:11:17;;;;;;;;;;;;;;;;;;7368344;19;19927;-70
2023/07/06 04:13:42;;;;;;;;;;;;;;;;;;7368418;19;20381;-70
2023/07/06 04:16:15;;;;;;;;;;;;;;;;;;7368380;19;19926;-70
2023/07/06 04:18:41;;;;;;;;;;;;;;;;;;7387696;19;20363;-70
2023/07/06 04:21:06;;;;;;;;;;;;;;;;;;7371702;19;19922;-69
2023/07/06 04:23:32;;;;;;;;;;;;;;;;;;7369149;19;20018;-69
2023/07/06 04:25:59;;;;;;;;;;;;;;;;;;7368943;19;19923;-69
2023/07/06 04:28:24;;;;;;;;;;;;;;;;;;7366848;19;19922;-68
2023/07/06 04:30:50;;;;;;;;;;;;;;;;;;7368073;19;20067;-69
2023/07/06 04:33:16;;;;;;;;;;;;;;;;;;7391022;19;19917;-68
2023/07/06 04:35:42;;;;;;;;;;;;;;;;;;7368022;19;19922;-68
2023/07/06 04:38:08;;;;;;;;;;;;;;;;;;7368176;19;19937;-69
2023/07/06 04:40:34;;;;;;;;;;;;;;;;;;7366900;19;19932;-68
2023/07/06 04:42:59;;;;;;;;;;;;;;;;;;7366277;19;19911;-68
2023/07/06 04:45:25;;;;;;;;;;;;;;;;;;7388095;19;19922;-69
2023/07/06 04:47:53;;;;;;;;;;;;;;;;;;7365582;19;19937;-69
2023/07/06 04:50:22;;;;;;;;;;;;;;;;;;7366906;19;19919;-70
2023/07/06 04:52:48;;;;;;;;;;;;;;;;;;7368227;19;20420;-69
2023/07/06 04:55:18;;;;;;;;;;;;;;;;;;7367993;19;19919;-69
2023/07/06 04:57:43;;;;;;;;;;;;;;;;;;7367157;19;19926;-69
2023/07/06 05:00:16;;;;;;;;;;;;;;;;;;7390759;19;19918;-69
2023/07/06 05:02:42;;;;;;;;;;;;;;;;;;7368572;19;20373;-69
2023/07/06 05:05:11;;;;;;;;;;;;;;;;;;7368555;19;19928;-68
2023/07/06 05:07:36;;;;;;;;;;;;;;;;;;7369759;19;20633;-58
2023/07/06 05:10:02;;;;;;;;;;;;;;;;;;7372451;19;19919;-56
2023/07/06 05:12:27;;;;;;;;;;;;;;;;;;7396447;19;19918;-57
2023/07/06 05:14:52;;;;;;;;;;;;;;;;;;7372572;19;20279;-60
2023/07/06 05:17:18;;;;;;;;;;;;;;;;;;7370120;19;19952;-58
2023/07/06 05:19:43;;;;;;;;;;;;;;;;;;7370655;19;19929;-59
2023/07/06 05:22:08;;;;;;;;;;;;;;;;;;7373121;19;19928;-60
2023/07/06 05:24:33;;;;;;;;;;;;;;;;;;7394185;19;19931;-61
2023/07/06 05:26:59;;;;;;;;;;;;;;;;;;7371422;19;19918;-61
2023/07/06 05:29:24;;;;;;;;;;;;;;;;;;7371731;19;19919;-61
2023/07/06 05:31:49;;;;;;;;;;;;;;;;;;7373462;19;19919;-60
2023/07/06 05:34:15;;;;;;;;;;;;;;;;;;7373500;19;19934;-60
2023/07/06 05:36:40;;;;;;;;;;;;;;;;;;7395339;19;19918;-61
2023/07/06 05:39:06;;;;;;;;;;;;;;;;;;7371516;19;20409;-60
2023/07/06 05:41:31;;;;;;;;;;;;;;;;;;7372059;19;20262;-60
2023/07/06 05:43:56;;;;;;;;;;;;;;;;;;7373442;19;19951;-61
2023/07/06 05:46:23;;;;;;;;;;;;;;;;;;7373633;19;19922;-57
2023/07/06 05:48:48;;;;;;;;;;;;;;;;;;7371002;19;19923;-59
2023/07/06 05:51:14;;;;;;;;;;;;;;;;;;7393639;19;19915;-60
2023/07/06 05:53:39;;;;;;;;;;;;;;;;;;7372833;19;20024;-59
2023/07/06 05:56:05;;;;;;;;;;;;;;;;;;7372079;19;19926;-61
2023/07/06 05:58:30;;;;;;;;;;;;;;;;;;7372511;19;19927;-59
2023/07/06 06:00:56;;;;;;;;;;;;;;;;;;7374651;19;20407;-59
2023/07/06 06:03:21;;;;;;;;;;;;;;;;;;7394452;19;19944;-60
2023/07/06 06:05:47;;;;;;;;;;;;;;;;;;7361445;19;19920;-64
2023/07/06 06:08:12;;;;;;;;;;;;;;;;;;7373130;19;19923;-63
2023/07/06 06:10:38;;;;;;;;;;;;;;;;;;7372197;19;19930;-63
2023/07/06 06:13:03;;;;;;;;;;;;;;;;;;7379413;19;19939;-64
2023/07/06 06:15:28;;;;;;;;;;;;;;;;;;7396214;19;19915;-64
2023/07/06 06:17:54;;;;;;;;;;;;;;;;;;7373996;19;19926;-64
2023/07/06 06:20:19;;;;;;;;;;;;;;;;;;7373861;19;19951;-65
2023/07/06 06:22:44;;;;;;;;;;;;;;;;;;7376641;19;19927;-65
2023/07/06 06:25:10;;;;;;;;;;;;;;;;;;7376391;19;20008;-65
2023/07/06 06:27:35;;;;;;;;;;;;;;;;;;7399437;19;19915;-71
2023/07/06 06:30:00;;;;;;;;;;;;;;;;;;7377466;19;19919;-65
2023/07/06 06:32:25;;;;;;;;;;;;;;;;;;7373485;19;19983;-69
2023/07/06 06:34:51;;;;;;;;;;;;;;;;;;7377069;19;19915;-67
2023/07/06 06:37:16;;;;;;;;;;;;;;;;;;7372267;19;19919;-61
2023/07/06 06:39:42;;;;;;;;;;;;;;;;;;7380632;19;19940;-62
2023/07/06 06:42:07;;;;;;;;;;;;;;;;;;7386548;19;19926;-61
2023/07/06 06:44:33;;;;;;;;;;;;;;;;;;7370226;19;19937;-63
2023/07/06 06:47:01;;;;;;;;;;;;;;;;;;7369724;19;19923;-68
2023/07/06 06:49:26;;;;;;;;;;;;;;;;;;7371261;19;19923;-69
2023/07/06 06:51:52;;;;;;;;;;;;;;;;;;7371063;19;19988;-69
2023/07/06 06:54:17;;;;;;;;;;;;;;;;;;7390250;19;19924;-68
2023/07/06 06:56:42;;;;;;;;;;;;;;;;;;7369260;19;19915;-67
2023/07/06 06:59:09;;;;;;;;;;;;;;;;;;7368113;19;19911;-67
2023/07/06 07:01:34;;;;;;;;;;;;;;;;;;7368434;19;20645;-68
2023/07/06 07:04:00;;;;;;;;;;;;;;;;;;7368628;19;19926;-67
2023/07/06 07:06:27;;;;;;;;;;;;;;;;;;7396197;19;19915;-65
2023/07/06 07:08:54;;;;;;;;;;;;;;;;;;7374130;19;19921;-66
2023/07/06 07:11:19;;;;;;;;;;;;;;;;;;7375934;19;19919;-65
2023/07/06 07:13:45;;;;;;;;;;;;;;;;;;7381981;19;19937;-65
2023/07/06 07:16:11;;;;;;;;;;;;;;;;;;7377964;19;19930;-65
2023/07/06 07:18:38;;;;;;;;;;;;;;;;;;7393380;19;19921;-67
2023/07/06 07:21:03;;;;;;;;;;;;;;;;;;7370184;19;19922;-66
2023/07/06 07:23:33;;;;;;;;;;;;;;;;;;7369623;19;19927;-66
2023/07/06 07:25:59;;;;;;;;;;;;;;;;;;7366134;19;19926;-65
2023/07/06 07:28:24;;;;;;;;;;;;;;;;;;7368456;19;19919;-74
2023/07/06 07:30:56;;;;;;;;;;;;;;;;;;7368246;19;19966;-69
2023/07/06 07:33:22;;;;;;;;;;;;;;;;;;7388985;19;19919;-62
2023/07/06 07:35:48;;;;;;;;;;;;;;;;;;7365421;19;20409;-60
2023/07/06 07:38:16;;;;;;;;;;;;;;;;;;7365010;19;19915;-61
2023/07/06 07:40:50;;;;;;;;;;;;;;;;;;7365422;19;19982;-62
2023/07/06 07:43:15;;;;;;;;;;;;;;;;;;7366918;19;19919;-64
2023/07/06 07:45:40;;;;;;;;;;;;;;;;;;7388138;19;19919;-66
2023/07/06 07:48:05;;;;;;;;;;;;;;;;;;7364232;19;19919;-63
2023/07/06 07:50:32;;;;;;;;;;;;;;;;;;7365933;19;19918;-71
2023/07/06 07:52:57;;;;;;;;;;;;;;;;;;7367518;19;19939;-69
2023/07/06 07:55:24;;;;;;;;;;;;;;;;;;7367898;19;19922;-69
2023/07/06 07:57:49;;;;;;;;;;;;;;;;;;7366000;19;19918;-70
2023/07/06 08:00:15;;;;;;;;;;;;;;;;;;7387292;19;19931;-62
2023/07/06 08:02:40;;;;;;;;;;;;;;;;;;7366350;19;19919;-58
2023/07/06 08:05:07;;;;;;;;;;;;;;;;;;7367448;19;20386;-62
2023/07/06 08:07:33;;;;;;;;;;;;;;;;;;7366841;19;20416;-60
2023/07/06 08:09:58;;;;;;;;;;;;;;;;;;7363839;19;19915;-61
2023/07/06 08:12:23;;;;;;;;;;;;;;;;;;7387539;19;19929;-60
2023/07/06 08:14:48;;;;;;;;;;;;;;;;;;7366176;19;19939;-59
2023/07/06 08:17:16;;;;;;;;;;;;;;;;;;7368767;19;19921;-60
2023/07/06 08:19:41;;;;;;;;;;;;;;;;;;7365244;19;20393;-59
2023/07/06 08:22:06;;;;;;;;;;;;;;;;;;7366520;19;19944;-60
2023/07/06 08:24:32;;;;;;;;;;;;;;;;;;7388246;19;19933;-59
2023/07/06 08:26:58;;;;;;;;;;;;;;;;;;7365782;19;19915;-70
2023/07/06 08:29:23;;;;;;;;;;;;;;;;;;7369166;19;19957;-62
2023/07/06 08:31:49;;;;;;;;;;;;;;;;;;7368302;19;20405;-60
2023/07/06 08:34:16;;;;;;;;;;;;;;;;;;7365009;19;20008;-60
2023/07/06 08:36:42;;;;;;;;;;;;;;;;;;7375151;19;19918;-60
2023/07/06 08:39:08;;;;;;;;;;;;;;;;;;7380729;19;20289;-59
2023/07/06 08:41:37;;;;;;;;;;;;;;;;;;7364804;19;19927;-60
2023/07/06 08:44:02;;;;;;;;;;;;;;;;;;7366049;19;19919;-60
2023/07/06 08:46:29;;;;;;;;;;;;;;;;;;7368122;19;19943;-60
2023/07/06 08:48:54;;;;;;;;;;;;;;;;;;7367109;19;19999;-61
2023/07/06 08:51:23;;;;;;;;;;;;;;;;;;7386849;19;19918;-57
2023/07/06 08:53:52;;;;;;;;;;;;;;;;;;7366322;19;19933;-59
2023/07/06 08:56:18;;;;;;;;;;;;;;;;;;7365902;19;19919;-57
2023/07/06 08:58:44;;;;;;;;;;;;;;;;;;7366001;19;19955;-56
2023/07/06 09:01:17;;;;;;;;;;;;;;;;;;7364822;19;19922;-59
2023/07/06 09:03:47;;;;;;;;;;;;;;;;;;7367749;19;19919;-69
2023/07/06 09:06:20;;;;;;;;;;;;;;;;;;7384321;19;19918;-69
2023/07/06 09:08:46;;;;;;;;;;;;;;;;;;7362137;19;20387;-69
2023/07/06 09:11:12;;;;;;;;;;;;;;;;;;7363228;19;19927;-69
2023/07/06 09:13:49;;;;;;;;;;;;;;;;;;7362668;19;19911;-69
2023/07/06 09:16:19;;;;;;;;;;;;;;;;;;7361844;19;19918;-70
2023/07/06 09:18:45;;;;;;;;;;;;;;;;;;7360198;19;19919;-69
2023/07/06 09:21:10;;;;;;;;;;;;;;;;;;7383634;19;20288;-69
2023/07/06 09:23:36;;;;;;;;;;;;;;;;;;7367480;19;19922;-69
2023/07/06 09:26:04;;;;;;;;;;;;;;;;;;7366978;19;19926;-69
2023/07/06 09:28:30;;;;;;;;;;;;;;;;;;7364805;19;19914;-69
2023/07/06 09:31:07;;;;;;;;;;;;;;;;;;7364777;19;20341;-69
2023/07/06 09:33:32;;;;;;;;;;;;;;;;;;7385274;19;19946;-69
2023/07/06 09:35:57;;;;;;;;;;;;;;;;;;7361430;19;19922;-69
2023/07/06 09:38:24;;;;;;;;;;;;;;;;;;7361732;19;19919;-70
2023/07/06 09:40:49;;;;;;;;;;;;;;;;;;7362294;19;19926;-70
2023/07/06 09:43:22;;;;;;;;;;;;;;;;;;7364381;19;19926;-69
2023/07/06 09:45:49;;;;;;;;;;;;;;;;;;7367193;19;20718;-69
2023/07/06 09:48:23;;;;;;;;;;;;;;;;;;7384750;19;20291;-69
2023/07/06 09:50:51;;;;;;;;;;;;;;;;;;7364726;19;19919;-69
2023/07/06 09:53:23;;;;;;;;;;;;;;;;;;7366251;19;19915;-68
2023/07/06 09:55:48;;;;;;;;;;;;;;;;;;7370533;19;19930;-68
2023/07/06 09:58:19;;;;;;;;;;;;;;;;;;7369842;19;20441;-70
2023/07/06 10:00:47;;;;;;;;;;;;;;;;;;7377478;19;19930;-69
2023/07/06 10:03:33;;;;;;;;;;;;;;;;;;7394016;19;19927;-69
2023/07/06 10:06:08;;;;;;;;;;;;;;;;;;7370840;19;19927;-68
2023/07/06 10:08:56;;;;;;;;;;;;;;;;;;7371290;19;19986;-68
2023/07/06 10:11:29;;;;;;;;;;;;;;;;;;7370675;19;19943;-69
2023/07/06 10:13:56;;;;;;;;;;;;;;;;;;7372008;19;20679;-69
2023/07/06 10:16:42;;;;;;;;;;;;;;;;;;7371345;19;19938;-69
2023/07/06 10:19:13;;;;;;;;;;;;;;;;;;7370015;19;20503;-69
2023/07/06 10:21:45;;;;;;;;;;;;;;;;;;7391142;19;19922;-69
2023/07/06 10:24:20;;;;;;;;;;;;;;;;;;7370308;19;19940;-69
2023/07/06 10:26:49;;;;;;;;;;;;;;;;;;7370385;19;19922;-69
2023/07/06 10:29:29;;;;;;;;;;;;;;;;;;7370704;19;19982;-69
2023/07/06 10:32:04;;;;;;;;;;;;;;;;;;7373146;19;19954;-69
2023/07/06 10:34:38;;;;;;;;;;;;;;;;;;7372363;19;19927;-69
2023/07/06 10:37:04;;;;;;;;;;;;;;;;;;7371618;19;19923;-69
2023/07/06 10:39:29;;;;;;;;;;;;;;;;;;7392116;19;19930;-69
2023/07/06 10:42:10;;;;;;;;;;;;;;;;;;7371343;19;20113;-69
2023/07/06 10:44:43;;;;;;;;;;;;;;;;;;7370604;19;20410;-69
2023/07/06 10:47:27;;;;;;;;;;;;;;;;;;7370774;19;20552;-69
2023/07/06 10:50:08;;;;;;;;;;;;;;;;;;7369900;19;19915;-69
2023/07/06 10:52:43;;;;;;;;;;;;;;;;;;7370996;19;20337;-70
2023/07/06 10:55:19;;;;;;;;;;;;;;;;;;7369878;19;19919;-70
2023/07/06 10:57:57;;;;;;;;;;;;;;;;;;7370296;19;19923;-70
2023/07/06 11:00:30;;;;;;;;;;;;;;;;;;7393834;19;19970;-69
2023/07/06 11:02:56;;;;;;;;;;;;;;;;;;7370349;19;19922;-68
2023/07/06 11:05:28;;;;;;;;;;;;;;;;;;7368918;19;20409;-68
2023/07/06 11:07:57;;;;;;;;;;;;;;;;;;7370372;19;19934;-68
2023/07/06 11:10:22;;;;;;;;;;;;;;;;;;7372458;19;19957;-69
2023/07/06 11:12:50;;;;;;;;;;;;;;;;;;7370957;19;19922;-69
2023/07/06 11:15:16;;;;;;;;;;;;;;;;;;7392518;19;20349;-68
2023/07/06 11:17:48;;;;;;;;;;;;;;;;;;7368487;19;19936;-68
2023/07/06 11:20:32;;;;;;;;;;;;;;;;;;7369618;19;19929;-69
2023/07/06 11:23:04;;;;;;;;;;;;;;;;;;7371227;19;19959;-69
2023/07/06 11:25:31;;;;;;;;;;;;;;;;;;7370371;19;19919;-70
2023/07/06 11:28:01;;;;;;;;;;;;;;;;;;7369031;19;19922;-70
2023/07/06 11:30:31;;;;;;;;;;;;;;;;;;7392302;19;19927;-70
2023/07/06 11:33:06;;;;;;;;;;;;;;;;;;7368783;19;20380;-70
2023/07/06 11:35:39;;;;;;;;;;;;;;;;;;7368337;19;19922;-70
2023/07/06 11:38:23;;;;;;;;;;;;;;;;;;7368987;19;19919;-70
2023/07/06 11:40:51;;;;;;;;;;;;;;;;;;7369212;19;19919;-70
2023/07/06 11:43:17;;;;;;;;;;;;;;;;;;7370888;19;19919;-70
2023/07/06 11:46:08;;;;;;;;;;;;;;;;;;7381489;19;20453;-69
2023/07/06 11:48:34;;;;;;;;;;;;;;;;;;7388612;19;19922;-69
2023/07/06 11:51:01;;;;;;;;;;;;;;;;;;7367804;19;19933;-69
2023/07/06 11:53:42;;;;;;;;;;;;;;;;;;7368789;19;19927;-70
2023/07/06 11:56:19;;;;;;;;;;;;;;;;;;7369667;19;20375;-68
2023/07/06 11:58:54;;;;;;;;;;;;;;;;;;7366779;19;19922;-68
2023/07/06 12:01:32;;;;;;;;;;;;;;;;;;7367052;19;19915;-68
2023/07/06 12:04:02;;;;;;;;;;;;;;;;;;7365262;19;19915;-69
2023/07/06 12:06:27;;;;;;;;;;;;;;;;;;7389180;19;19922;-69
2023/07/06 12:08:54;;;;;;;;;;;;;;;;;;7367121;19;19926;-69
2023/07/06 12:11:22;;;;;;;;;;;;;;;;;;7366681;19;19951;-69
2023/07/06 12:13:52;;;;;;;;;;;;;;;;;;7366665;19;20388;-69
2023/07/06 12:16:22;;;;;;;;;;;;;;;;;;7367928;19;20038;-68
2023/07/06 12:18:52;;;;;;;;;;;;;;;;;;7364986;19;19923;-69
2023/07/06 12:21:29;;;;;;;;;;;;;;;;;;7390629;19;19942;-70
2023/07/06 12:23:59;;;;;;;;;;;;;;;;;;7367300;19;19930;-69
2023/07/06 12:26:24;;;;;;;;;;;;;;;;;;7366531;19;19926;-69
2023/07/06 12:28:50;;;;;;;;;;;;;;;;;;7365884;19;19915;-70
2023/07/06 12:31:16;;;;;;;;;;;;;;;;;;7364572;19;20261;-69
2023/07/06 12:33:42;;;;;;;;;;;;;;;;;;7390292;19;19926;-71
2023/07/06 12:36:09;;;;;;;;;;;;;;;;;;7380496;19;19959;-69
2023/07/06 12:38:38;;;;;;;;;;;;;;;;;;7366004;19;20482;-70
2023/07/06 12:41:14;;;;;;;;;;;;;;;;;;7364026;19;19915;-70
2023/07/06 12:43:39;;;;;;;;;;;;;;;;;;7366395;19;19935;-69
2023/07/06 12:46:05;;;;;;;;;;;;;;;;;;7366310;19;19919;-71
2023/07/06 12:48:30;;;;;;;;;;;;;;;;;;7388103;19;19922;-70
2023/07/06 12:50:55;;;;;;;;;;;;;;;;;;7364668;19;20001;-69
2023/07/06 12:53:28;;;;;;;;;;;;;;;;;;7364969;19;19990;-69
2023/07/06 12:55:58;;;;;;;;;;;;;;;;;;7366590;19;19915;-69
2023/07/06 12:58:27;;;;;;;;;;;;;;;;;;7366460;19;19919;-70
2023/07/06 13:00:59;;;;;;;;;;;;;;;;;;7365131;19;19918;-69
2023/07/06 13:03:24;;;;;;;;;;;;;;;;;;7388395;19;19933;-69
2023/07/06 13:05:54;;;;;;;;;;;;;;;;;;7365012;19;19919;-69
2023/07/06 13:08:19;;;;;;;;;;;;;;;;;;7366506;19;19925;-69
2023/07/06 13:10:53;;;;;;;;;;;;;;;;;;7363780;19;19978;-69
2023/07/06 13:13:19;;;;;;;;;;;;;;;;;;7363880;19;19939;-68
2023/07/06 13:15:46;;;;;;;;;;;;;;;;;;7366052;19;20545;-71
2023/07/06 13:18:14;;;;;;;;;;;;;;;;;;7386794;19;19925;-70
2023/07/06 13:20:40;;;;;;;;;;;;;;;;;;7364883;19;19923;-71
2023/07/06 13:23:07;;;;;;;;;;;;;;;;;;7367091;19;19915;-70
2023/07/06 13:25:39;;;;;;;;;;;;;;;;;;7365384;19;19919;-69
2023/07/06 13:28:04;;;;;;;;;;;;;;;;;;7365649;19;19918;-70
2023/07/06 13:30:29;;;;;;;;;;;;;;;;;;7392732;19;19914;-68
2023/07/06 13:32:56;;;;;;;;;;;;;;;;;;7372023;19;19990;-69
2023/07/06 13:35:22;;;;;;;;;;;;;;;;;;7371509;19;19919;-69
2023/07/06 13:37:47;;;;;;;;;;;;;;;;;;7372658;19;19925;-69
2023/07/06 13:40:17;;;;;;;;;;;;;;;;;;7371595;19;19990;-70
2023/07/06 13:42:43;;;;;;;;;;;;;;;;;;7384915;19;20340;-69
2023/07/06 13:45:16;;;;;;;;;;;;;;;;;;7394603;19;19915;-69
2023/07/06 13:47:41;;;;;;;;;;;;;;;;;;7370591;19;20358;-69
2023/07/06 13:50:07;;;;;;;;;;;;;;;;;;7370061;19;19919;-69
2023/07/06 13:52:32;;;;;;;;;;;;;;;;;;7372280;19;19923;-69
2023/07/06 13:54:58;;;;;;;;;;;;;;;;;;7371704;19;19919;-70
2023/07/06 13:57:23;;;;;;;;;;;;;;;;;;7394307;19;19914;-69
2023/07/06 13:59:49;;;;;;;;;;;;;;;;;;7374172;19;19919;-69
2023/07/06 14:02:14;;;;;;;;;;;;;;;;;;7371495;19;19919;-69
2023/07/06 14:04:39;;;;;;;;;;;;;;;;;;7371031;19;19919;-69
2023/07/06 14:07:05;;;;;;;;;;;;;;;;;;7372426;19;19912;-69
2023/07/06 14:09:30;;;;;;;;;;;;;;;;;;7394079;19;19925;-69
2023/07/06 14:11:56;;;;;;;;;;;;;;;;;;7370503;19;19911;-69
2023/07/06 14:14:21;;;;;;;;;;;;;;;;;;7371986;19;19971;-69
2023/07/06 14:16:46;;;;;;;;;;;;;;;;;;7369235;19;20349;-69
2023/07/06 14:19:12;;;;;;;;;;;;;;;;;;7372188;19;19919;-69
2023/07/06 14:21:37;;;;;;;;;;;;;;;;;;7392422;19;19925;-69
2023/07/06 14:24:03;;;;;;;;;;;;;;;;;;7371737;19;19915;-69
2023/07/06 14:26:28;;;;;;;;;;;;;;;;;;7371530;19;19923;-70
2023/07/06 14:28:54;;;;;;;;;;;;;;;;;;7372395;19;19919;-70
2023/07/06 14:31:19;;;;;;;;;;;;;;;;;;7371224;19;20388;-70
2023/07/06 14:33:45;;;;;;;;;;;;;;;;;;7371119;19;19919;-70
2023/07/06 14:36:11;;;;;;;;;;;;;;;;;;7393906;19;19978;-70
2023/07/06 14:38:36;;;;;;;;;;;;;;;;;;7375310;19;19944;-70
2023/07/06 14:41:02;;;;;;;;;;;;;;;;;;7373191;19;20345;-68
2023/07/06 14:43:28;;;;;;;;;;;;;;;;;;7373651;19;19919;-69
2023/07/06 14:45:54;;;;;;;;;;;;;;;;;;7371635;19;19919;-69
2023/07/06 14:48:19;;;;;;;;;;;;;;;;;;7389714;19;19925;-68
2023/07/06 14:50:44;;;;;;;;;;;;;;;;;;7370943;19;19946;-68
2023/07/06 14:53:11;;;;;;;;;;;;;;;;;;7375113;19;20016;-68
2023/07/06 14:55:36;;;;;;;;;;;;;;;;;;7371581;19;19929;-70
2023/07/06 14:58:02;;;;;;;;;;;;;;;;;;7369017;19;20344;-69
2023/07/06 15:00:28;;;;;;;;;;;;;;;;;;7389788;19;19947;-69
2023/07/06 15:02:53;;;;;;;;;;;;;;;;;;7370262;19;19956;-70
2023/07/06 15:05:18;;;;;;;;;;;;;;;;;;7371274;19;19931;-70
2023/07/06 15:07:43;;;;;;;;;;;;;;;;;;7369913;19;19915;-68
2023/07/06 15:10:10;;;;;;;;;;;;;;;;;;7369368;19;19922;-69
2023/07/06 15:12:35;;;;;;;;;;;;;;;;;;7391823;19;19926;-69
2023/07/06 15:15:00;;;;;;;;;;;;;;;;;;7373223;19;19926;-69
2023/07/06 15:17:26;;;;;;;;;;;;;;;;;;7372003;19;19940;-69
2023/07/06 15:19:51;;;;;;;;;;;;;;;;;;7370415;19;20399;-70
2023/07/06 15:22:17;;;;;;;;;;;;;;;;;;7369640;19;19930;-68
2023/07/06 15:24:42;;;;;;;;;;;;;;;;;;7378197;19;19918;-69
2023/07/06 15:27:07;;;;;;;;;;;;;;;;;;7385248;19;19937;-69
2023/07/06 15:29:33;;;;;;;;;;;;;;;;;;7369274;19;19926;-69
2023/07/06 15:31:58;;;;;;;;;;;;;;;;;;7369396;19;19926;-69
2023/07/06 15:34:23;;;;;;;;;;;;;;;;;;7369161;19;19915;-69
2023/07/06 15:37:00;;;;;;;;;;;;;;;;;;7366672;19;20014;-69
2023/07/06 15:39:26;;;;;;;;;;;;;;;;;;7388279;19;20226;-69
2023/07/06 15:41:54;;;;;;;;;;;;;;;;;;7365821;19;19919;-68
2023/07/06 15:44:20;;;;;;;;;;;;;;;;;;7368959;19;20554;-70
2023/07/06 15:46:45;;;;;;;;;;;;;;;;;;7361829;19;19919;-70
2023/07/06 15:49:10;;;;;;;;;;;;;;;;;;7365701;19;19915;-69
2023/07/06 15:51:36;;;;;;;;;;;;;;;;;;7384272;19;19903;-69
2023/07/06 15:54:01;;;;;;;;;;;;;;;;;;7364386;19;20670;-69
2023/07/06 15:56:26;;;;;;;;;;;;;;;;;;7364650;19;20337;-70
2023/07/06 15:58:58;;;;;;;;;;;;;;;;;;7364289;19;20338;-68
2023/07/06 16:01:24;;;;;;;;;;;;;;;;;;7366333;19;19919;-69
2023/07/06 16:03:49;;;;;;;;;;;;;;;;;;7364440;19;19915;-70
2023/07/06 16:06:18;;;;;;;;;;;;;;;;;;7389412;19;19919;-69
2023/07/06 16:08:43;;;;;;;;;;;;;;;;;;7364159;19;19922;-70
2023/07/06 16:11:08;;;;;;;;;;;;;;;;;;7362850;19;20381;-69
2023/07/06 16:13:34;;;;;;;;;;;;;;;;;;7367630;19;20635;-69
2023/07/06 16:15:59;;;;;;;;;;;;;;;;;;7362207;19;20346;-68
2023/07/06 16:18:24;;;;;;;;;;;;;;;;;;7385467;19;19947;-69
2023/07/06 16:20:51;;;;;;;;;;;;;;;;;;7363562;19;19927;-69
2023/07/06 16:23:16;;;;;;;;;;;;;;;;;;7365080;19;20350;-69
2023/07/06 16:25:41;;;;;;;;;;;;;;;;;;7364122;19;19925;-70
2023/07/06 16:28:06;;;;;;;;;;;;;;;;;;7361486;19;19919;-69
2023/07/06 16:30:32;;;;;;;;;;;;;;;;;;7386885;19;19919;-69
2023/07/06 16:32:57;;;;;;;;;;;;;;;;;;7364572;19;19927;-70
2023/07/06 16:35:22;;;;;;;;;;;;;;;;;;7363915;19;19943;-69
2023/07/06 16:37:49;;;;;;;;;;;;;;;;;;7365119;19;19915;-69
2023/07/06 16:40:14;;;;;;;;;;;;;;;;;;7364643;19;19953;-69
2023/07/06 16:42:40;;;;;;;;;;;;;;;;;;7387672;19;19919;-69
2023/07/06 16:45:05;;;;;;;;;;;;;;;;;;7366773;19;19918;-69
2023/07/06 16:47:32;;;;;;;;;;;;;;;;;;7365886;19;19919;-69